หน้าหลัก
METAR-TAF:

METAR-TAF

ท่าอากาศยาน :

Alderney,

ละติจูด: 49-43N, ลองจิจูด: 002-12W, ความสูง: 71 ม.

การสังเกตสภาพอากาศปัจจุบัน

รายงานได้ทำขึ้นเมื่อ 11 ชั่วโมงและ 51 นาทีที่แล้ว ณ เวลา 17:20 UTC
ลม 10 นอตจากตะวันตก/ตะวันตกเฉียงเหนือ
อุณหภูมิ 14°C
ความชื้น 63%
ความกดอากาศ 1021 hPa
ทัศนวิสัย 10 กม. หรือมากกว่า
มีเมฆน้อยที่ความสูง 2400 ฟุต

METAR: EGJA 121720Z 29010KT 9999 FEW024 14/07 Q1021

เวลา: 06:11 (05:11 UTC)

การพยากรณ์

รายงานได้ทำขึ้นเมื่อ 15 ชั่วโมงและ 15 นาทีที่แล้ว ณ เวลา 13:56 UTC
การพยากรณ์มีผลตั้งแต่วันที่ 12 ณ เวลา 15 UTC จนถึงวันที่ 13 ณ เวลา 00 UTC
ลม 10 นอตจากตะวันตก/ตะวันตกเฉียงเหนือ
ทัศนวิสัย 10 กม. หรือมากกว่า
มีเมฆน้อยที่ความสูง 2000 ฟุต

TAF: EGJA 121356Z 1215/1300 30010KT 9999 FEW020

สังเกตการณ์สภาพอากาศและพยากรณ์อากาศของสนามบินมากกว่า 4000 แห่ง (รายงาน METAR และ TAF).

สถานีที่ดูได้จะแสดงไว้ด้วยจุดสีเหลืองและสีแดงบนแผนที่.

เลื่อนเมาส์ไปเหนือจุดเพื่อดูชื่อสถานี.

แล้วคลิกเพื่อดูสังเกตการณ์และการพยากรณ์สภาพอากาศ.

ในการเปลี่ยนแผนที่: คลิกที่ปุ่มสีเขียวที่มีกากบาทสีดำเพื่อซูมเข้า; ที่ปุ่มสีเขียวที่มีขีดเพื่อซูมออก; หรือที่ลูกศรสีเขียวเพื่อไปยังแผนที่ที่อยู่ติดกัน.


METAR-TAF: